Página principal
METAR-TAF:

METAR-TAF

Aeroportos :

Logan-Cache Airport

Logan, Utah, Estados Unidos

latitude: 41-46-58N, longitude: 111-51-14W, altura: 1357 m

Observação actual do tempo

O boletim foi feito há 55 minutos, às 23:51 UTC
Vento 3 kt de oes-noroeste
Temperatura -7°C
Humidade 79%
Pressão 1033 hPa
Visibilidade: 16.1 km
Céu limpo

METAR: KLGU 132351Z AUTO 29003KT 10SM CLR M07/M10 A3049 RMK AO2 SLP381 I6000 T10721100 11044 21094 50003

Hora: 17:46 (00:46 UTC)

Previsão

O boletim foi feito há 1 hora e 26 minutos, às 23:20 UTC
Previsão válida de 14 às 00 UTC a 14 às 24 UTC
Vento 4 kt com direcção variável
Visibilidade: 10 km
Nuvens dispersasa uma altura de 20000 ft

TAF: KLGU 132320Z 1400/1424 VRB04KT P6SM SCT200

Observações e previsões do tempo de mais de 4000 aeroportos (mensagens METAR e TAF).

As estações disponíveis são os pontos amarelos e vermelhos sobre o mapa.

Mova o rato sobre o mapa para ver o nome da estação.

Depois clique no ponto para visualizar as observações e previsões meteorológicas.

Para alterar o mapa : clique nos botões verdes com uma cruz preta para aumentar o zoom; no botão verde com uma pitada de zoom; ou nas setas verdes para mapas adjacentes.


METAR-TAF: